createdAt,value
2023-05-10T16:47:14.760Z,1006.40
2023-05-10T16:48:14.649Z,1006.40
2023-05-10T16:49:14.652Z,1006.43
2023-05-10T16:50:14.660Z,1006.42
2023-05-10T16:51:14.673Z,1006.39
2023-05-10T16:52:14.679Z,1006.44
2023-05-10T16:53:14.721Z,1006.39
2023-05-10T16:54:14.712Z,1006.45
2023-05-10T16:55:14.904Z,1006.40
2023-05-10T16:56:14.710Z,1006.42
2023-05-10T16:57:14.721Z,1006.43
2023-05-10T16:58:14.741Z,1006.43
2023-05-10T16:59:14.740Z,1006.46
2023-05-10T17:00:14.744Z,1006.48
2023-05-10T17:01:14.800Z,1006.51
2023-05-10T17:02:14.833Z,1006.52
2023-05-10T17:03:14.962Z,1006.49
2023-05-10T17:04:14.872Z,1006.52
2023-05-10T17:05:14.863Z,1006.50
2023-05-10T17:06:14.820Z,1006.52
2023-05-10T17:07:15.631Z,1006.50
2023-05-10T17:08:14.834Z,1006.52
2023-05-10T17:09:14.844Z,1006.51
2023-05-10T17:10:14.856Z,1006.52
2023-05-10T17:11:14.867Z,1006.54
2023-05-10T17:12:14.868Z,1006.53
2023-05-10T17:13:14.881Z,1006.53
2023-05-10T17:14:14.892Z,1006.55
2023-05-10T17:15:15.036Z,1006.53
2023-05-10T17:16:15.003Z,1006.55
2023-05-10T17:17:14.925Z,1006.58
2023-05-10T17:18:14.932Z,1006.56
2023-05-10T17:19:14.972Z,1006.58
2023-05-10T17:20:14.964Z,1006.57
2023-05-10T17:21:14.954Z,1006.58
2023-05-10T17:22:14.978Z,1006.62
2023-05-10T17:23:14.982Z,1006.63
2023-05-10T17:24:15.005Z,1006.60
2023-05-10T17:25:15.183Z,1006.62
2023-05-10T17:26:15.010Z,1006.62
2023-05-10T17:27:15.218Z,1006.68
2023-05-10T17:28:15.033Z,1006.67
2023-05-10T17:29:15.036Z,1006.70
2023-05-10T17:30:15.050Z,1006.69
2023-05-10T17:31:15.145Z,1006.70
2023-05-10T17:32:15.089Z,1006.76
2023-05-10T17:33:15.085Z,1006.72
2023-05-10T17:34:15.086Z,1006.76
2023-05-10T17:35:15.235Z,1006.70
2023-05-10T17:36:17.724Z,1006.74
2023-05-10T17:37:15.124Z,1006.78
2023-05-10T17:38:15.121Z,1006.78
2023-05-10T17:39:15.146Z,1006.81
2023-05-10T17:40:15.148Z,1006.78
2023-05-10T17:41:15.359Z,1006.83
2023-05-10T17:42:15.174Z,1006.83
2023-05-10T17:43:15.179Z,1006.83
2023-05-10T17:44:15.180Z,1006.83
2023-05-10T17:45:15.455Z,1006.89
2023-05-10T17:46:15.228Z,1006.86
2023-05-10T17:47:15.219Z,1006.89
2023-05-10T17:48:15.232Z,1006.92
2023-05-10T17:49:15.279Z,1006.91
2023-05-10T17:50:15.245Z,1006.91
2023-05-10T17:51:15.286Z,1006.91
2023-05-10T17:52:15.264Z,1006.94
2023-05-10T17:53:15.278Z,1006.99
2023-05-10T17:54:15.285Z,1006.96
2023-05-10T17:55:15.476Z,1006.97
2023-05-10T17:56:15.301Z,1006.97
2023-05-10T17:57:15.305Z,1006.95
2023-05-10T17:58:15.319Z,1006.98
2023-05-10T17:59:15.324Z,1006.95
2023-05-10T18:00:15.339Z,1006.99
2023-05-10T18:01:15.393Z,1006.97
2023-05-10T18:02:15.360Z,1007.05
2023-05-10T18:03:15.362Z,1007.02
2023-05-10T18:04:15.401Z,1007.02
2023-05-10T18:05:15.659Z,1007.03
2023-05-10T18:06:15.393Z,1007.01
2023-05-10T18:07:15.445Z,1007.01
2023-05-10T18:08:15.409Z,1007.05
2023-05-10T18:09:15.416Z,1007.04
2023-05-10T18:10:15.453Z,1007.04
2023-05-10T18:11:15.439Z,1007.04
2023-05-10T18:12:15.452Z,1007.10
2023-05-10T18:13:15.461Z,1007.09
2023-05-10T18:14:20.577Z,1007.06
2023-05-10T18:15:15.584Z,1007.09
2023-05-10T18:16:15.493Z,1007.10
2023-05-10T18:17:15.488Z,1007.12
2023-05-10T18:18:15.498Z,1007.14
2023-05-10T18:19:15.518Z,1007.17
2023-05-10T18:20:15.554Z,1007.16
2023-05-10T18:21:15.527Z,1007.14
2023-05-10T18:22:15.740Z,1007.17
2023-05-10T18:23:15.573Z,1007.15
2023-05-10T18:24:16.867Z,1007.18
2023-05-10T18:25:15.673Z,1007.20
2023-05-10T18:26:15.575Z,1007.18
2023-05-10T18:27:15.576Z,1007.18
2023-05-10T18:28:15.593Z,1007.20
2023-05-10T18:29:15.612Z,1007.26
2023-05-10T18:30:15.617Z,1007.20
2023-05-10T18:31:15.661Z,1007.23
2023-05-10T18:32:15.829Z,1007.24
2023-05-10T18:33:15.632Z,1007.27
2023-05-10T18:34:15.653Z,1007.27
2023-05-10T18:35:15.676Z,1007.28
2023-05-10T18:36:15.683Z,1007.27
2023-05-10T18:37:15.676Z,1007.30
2023-05-10T18:38:15.685Z,1007.31
2023-05-10T18:39:15.717Z,1007.31
2023-05-10T18:40:15.708Z,1007.34
2023-05-10T18:41:15.715Z,1007.37
2023-05-10T18:42:15.721Z,1007.39
2023-05-10T18:43:15.721Z,1007.41
2023-05-10T18:44:15.728Z,1007.42
2023-05-10T18:45:16.017Z,1007.42
2023-05-10T18:46:15.774Z,1007.45
2023-05-10T18:47:15.770Z,1007.47
2023-05-10T18:48:15.775Z,1007.46
2023-05-10T18:49:15.987Z,1007.48
2023-05-10T18:50:15.794Z,1007.50
2023-05-10T18:51:15.797Z,1007.52
2023-05-10T18:52:15.810Z,1007.53
2023-05-10T18:53:15.811Z,1007.52
2023-05-10T18:54:15.826Z,1007.51
2023-05-10T18:55:16.261Z,1007.52
2023-05-10T18:56:15.836Z,1007.56
2023-05-10T18:57:15.847Z,1007.56
2023-05-10T18:58:15.859Z,1007.55
2023-05-10T18:59:15.864Z,1007.58
2023-05-10T19:00:15.875Z,1007.63
2023-05-10T19:01:17.192Z,1007.60
2023-05-10T19:02:15.932Z,1007.66
2023-05-10T19:03:15.903Z,1007.63
2023-05-10T19:04:15.989Z,1007.63
2023-05-10T19:05:16.312Z,1007.68
2023-05-10T19:06:15.928Z,1007.69
2023-05-10T19:07:15.943Z,1007.68
2023-05-10T19:08:15.950Z,1007.72
2023-05-10T19:09:15.956Z,1007.73
2023-05-10T19:10:15.981Z,1007.75
2023-05-10T19:11:15.990Z,1007.79
2023-05-10T19:12:15.973Z,1007.80
2023-05-10T19:13:15.993Z,1007.83
2023-05-10T19:14:15.999Z,1007.78
2023-05-10T19:15:17.661Z,1007.78
2023-05-10T19:16:16.112Z,1007.83
2023-05-10T19:17:16.058Z,1007.82
2023-05-10T19:18:16.235Z,1007.84
2023-05-10T19:19:16.044Z,1007.82
2023-05-10T19:20:16.536Z,1007.86
2023-05-10T19:21:16.176Z,1007.85
2023-05-10T19:22:16.065Z,1007.82
2023-05-10T19:23:16.119Z,1007.86
2023-05-10T19:24:16.085Z,1007.87
2023-05-10T19:25:16.304Z,1007.89
2023-05-10T19:26:16.170Z,1007.87
2023-05-10T19:27:16.139Z,1007.91
2023-05-10T19:28:16.125Z,1007.93
2023-05-10T19:29:16.122Z,1007.92
2023-05-10T19:30:16.135Z,1007.93
2023-05-10T19:31:16.188Z,1007.88
2023-05-10T19:32:16.149Z,1007.94
2023-05-10T19:33:16.170Z,1007.91
2023-05-10T19:34:16.164Z,1007.94
2023-05-10T19:35:16.488Z,1007.91
2023-05-10T19:36:16.188Z,1007.94
2023-05-10T19:38:03.742Z,1007.98
2023-05-10T19:39:03.750Z,1007.95
2023-05-10T19:40:03.769Z,1007.95
2023-05-10T19:41:03.781Z,1007.98
2023-05-10T19:42:03.778Z,1007.99
2023-05-10T19:43:03.811Z,1007.98
2023-05-10T19:44:03.795Z,1007.99
2023-05-10T19:45:03.815Z,1008.00
2023-05-10T19:46:03.808Z,1008.00
2023-05-10T19:47:03.873Z,1008.02
2023-05-10T19:48:03.915Z,1008.01
2023-05-10T19:49:03.842Z,1008.06
2023-05-10T19:50:03.884Z,1008.04
2023-05-10T19:51:03.860Z,1008.03
2023-05-10T19:52:03.852Z,1008.03
2023-05-10T19:53:03.875Z,1008.09
2023-05-10T19:54:03.902Z,1008.07
2023-05-10T19:55:03.882Z,1008.08
2023-05-10T19:56:03.897Z,1008.07
2023-05-10T19:57:03.898Z,1008.10
2023-05-10T19:58:03.918Z,1008.07
2023-05-10T19:59:03.963Z,1008.10
2023-05-10T20:00:03.937Z,1008.11
2023-05-10T20:01:04.034Z,1008.12
2023-05-10T20:02:03.949Z,1008.10
2023-05-10T20:03:03.966Z,1008.14
2023-05-10T20:04:04.032Z,1008.12
2023-05-10T20:05:03.961Z,1008.14
2023-05-10T20:06:04.036Z,1008.12
2023-05-10T20:07:03.984Z,1008.12
2023-05-10T20:08:03.998Z,1008.13
2023-05-10T20:09:04.013Z,1008.15
2023-05-10T20:10:04.008Z,1008.14
2023-05-10T20:11:04.059Z,1008.14
2023-05-10T20:12:04.031Z,1008.15
2023-05-10T20:13:04.042Z,1008.15
2023-05-10T20:14:04.041Z,1008.16
2023-05-10T20:15:04.073Z,1008.18
2023-05-10T20:16:04.059Z,1008.14
2023-05-10T20:17:04.163Z,1008.13
2023-05-10T20:18:04.105Z,1008.16
2023-05-10T20:19:04.157Z,1008.20
2023-05-10T20:20:04.115Z,1008.16
2023-05-10T20:21:04.120Z,1008.18
2023-05-10T20:22:04.116Z,1008.20
2023-05-10T20:23:04.168Z,1008.19
2023-05-10T20:24:04.124Z,1008.23
2023-05-10T20:25:04.134Z,1008.21
2023-05-10T20:26:04.155Z,1008.20
2023-05-10T20:27:04.155Z,1008.21
2023-05-10T20:28:04.157Z,1008.22
2023-05-10T20:29:04.175Z,1008.18
2023-05-10T20:30:04.174Z,1008.20
2023-05-10T20:31:04.258Z,1008.15
2023-05-10T20:32:04.192Z,1008.18
2023-05-10T20:33:04.312Z,1008.17
2023-05-10T20:34:04.216Z,1008.17
2023-05-10T20:35:04.225Z,1008.17
2023-05-10T20:36:04.236Z,1008.18
2023-05-10T20:37:04.244Z,1008.19
2023-05-10T20:38:04.260Z,1008.19
2023-05-10T20:39:04.259Z,1008.26
2023-05-10T20:40:04.262Z,1008.23
2023-05-10T20:41:04.283Z,1008.24
2023-05-10T20:42:04.279Z,1008.25
2023-05-10T20:43:04.298Z,1008.26
2023-05-10T20:44:04.301Z,1008.25
2023-05-10T20:45:04.320Z,1008.24
2023-05-10T20:46:04.456Z,1008.24
2023-05-10T20:47:04.357Z,1008.27
2023-05-10T20:48:04.371Z,1008.26
2023-05-10T20:49:04.344Z,1008.25
2023-05-10T20:50:04.388Z,1008.26
2023-05-10T20:51:04.360Z,1008.26
2023-05-10T20:52:04.375Z,1008.25
2023-05-10T20:53:04.381Z,1008.26
2023-05-10T20:54:04.420Z,1008.26
2023-05-10T20:55:04.416Z,1008.29
2023-05-10T20:56:04.415Z,1008.30
2023-05-10T20:57:04.406Z,1008.27
2023-05-10T20:58:05.241Z,1008.25
2023-05-10T20:59:04.443Z,1008.24
2023-05-10T21:00:04.439Z,1008.24
2023-05-10T21:01:04.446Z,1008.25
2023-05-10T21:02:04.523Z,1008.27
2023-05-10T21:03:04.560Z,1008.25
2023-05-10T21:04:04.474Z,1008.22
2023-05-10T21:05:04.499Z,1008.25
2023-05-10T21:06:04.489Z,1008.20
2023-05-10T21:07:04.499Z,1008.22
2023-05-10T21:08:04.507Z,1008.22
2023-05-10T21:09:04.508Z,1008.23
2023-05-10T21:10:04.535Z,1008.25
2023-05-10T21:11:04.531Z,1008.24
2023-05-10T21:12:04.553Z,1008.26
2023-05-10T21:13:04.543Z,1008.24
2023-05-10T21:14:04.566Z,1008.27
2023-05-10T21:15:04.563Z,1008.25
2023-05-10T21:16:04.616Z,1008.28
2023-05-10T21:17:04.577Z,1008.24
2023-05-10T21:18:04.682Z,1008.24
2023-05-10T21:19:04.719Z,1008.28
2023-05-10T21:20:04.690Z,1008.27
2023-05-10T21:21:04.616Z,1008.28
2023-05-10T21:22:04.620Z,1008.29
2023-05-10T21:23:04.634Z,1008.30
2023-05-10T21:24:04.636Z,1008.30
2023-05-10T21:25:04.649Z,1008.31
2023-05-10T21:26:04.706Z,1008.35
2023-05-10T21:27:04.676Z,1008.35
2023-05-10T21:28:04.677Z,1008.33
2023-05-10T21:29:04.720Z,1008.34
2023-05-10T21:30:04.822Z,1008.34
2023-05-10T21:31:04.708Z,1008.34
2023-05-10T21:32:04.888Z,1008.32
2023-05-10T21:33:04.943Z,1008.33
2023-05-10T21:34:04.722Z,1008.36
2023-05-10T21:35:04.760Z,1008.33
2023-05-10T21:36:04.842Z,1008.33
2023-05-10T21:37:04.754Z,1008.31
2023-05-10T21:38:04.765Z,1008.30
2023-05-10T21:39:04.771Z,1008.29
2023-05-10T21:41:04.796Z,1008.33
2023-05-10T21:42:04.831Z,1008.34
2023-05-10T21:43:04.804Z,1008.39
2023-05-10T21:44:04.816Z,1008.35
2023-05-10T21:45:04.821Z,1008.34
2023-05-10T21:46:04.938Z,1008.39
2023-05-10T21:47:04.832Z,1008.39
2023-05-10T21:48:04.869Z,1008.38
2023-05-10T21:49:04.856Z,1008.36
2023-05-10T21:50:04.867Z,1008.36
2023-05-10T21:51:04.901Z,1008.36
2023-05-10T21:52:04.922Z,1008.36
2023-05-10T21:53:04.896Z,1008.38
2023-05-10T21:54:04.891Z,1008.40
2023-05-10T21:55:04.910Z,1008.41
2023-05-10T21:56:04.905Z,1008.39
2023-05-10T21:57:04.925Z,1008.39
2023-05-10T21:58:04.924Z,1008.41
2023-05-10T21:59:04.958Z,1008.40
2023-05-10T22:00:04.938Z,1008.38
2023-05-10T22:01:04.994Z,1008.41
2023-05-10T22:02:05.010Z,1008.39
2023-05-10T22:03:05.088Z,1008.42
2023-05-10T22:04:04.976Z,1008.43
2023-05-10T22:05:04.980Z,1008.38
2023-05-10T22:06:05.001Z,1008.44
2023-05-10T22:07:05.028Z,1008.40
2023-05-10T22:08:05.008Z,1008.42
2023-05-10T22:09:05.013Z,1008.42
2023-05-10T22:10:05.022Z,1008.44
2023-05-10T22:11:05.073Z,1008.40
2023-05-10T22:12:05.058Z,1008.43
2023-05-10T22:13:05.064Z,1008.46
2023-05-10T22:14:05.057Z,1008.43
2023-05-10T22:16:05.075Z,1008.42
2023-05-10T22:17:05.159Z,1008.38
2023-05-10T22:18:05.192Z,1008.45
2023-05-10T22:19:05.225Z,1008.45
2023-05-10T22:20:05.102Z,1008.43
2023-05-10T22:21:05.126Z,1008.42
2023-05-10T22:22:05.122Z,1008.42
2023-05-10T22:23:05.162Z,1008.41
2023-05-10T22:24:05.145Z,1008.38
2023-05-10T22:25:05.153Z,1008.44
2023-05-10T22:26:05.156Z,1008.40
2023-05-10T22:27:05.167Z,1008.42
2023-05-10T22:28:05.180Z,1008.43
2023-05-10T22:29:05.189Z,1008.43
2023-05-10T22:30:05.200Z,1008.45
2023-05-10T22:31:05.249Z,1008.45
2023-05-10T22:32:05.223Z,1008.44
2023-05-10T22:33:05.261Z,1008.45
2023-05-10T22:34:05.236Z,1008.43
2023-05-10T22:35:05.250Z,1008.46
2023-05-10T22:36:05.247Z,1008.49
2023-05-10T22:37:05.256Z,1008.45
2023-05-10T22:38:05.269Z,1008.45
2023-05-10T22:39:05.284Z,1008.46
2023-05-10T22:40:05.325Z,1008.49
2023-05-10T22:41:05.287Z,1008.49
2023-05-10T22:42:05.314Z,1008.44
2023-05-10T22:43:05.306Z,1008.47
2023-05-10T22:44:05.312Z,1008.49
2023-05-10T22:45:05.319Z,1008.48
2023-05-10T22:46:05.359Z,1008.47
2023-05-10T22:47:05.333Z,1008.53
2023-05-10T22:48:05.428Z,1008.49
2023-05-10T22:49:05.354Z,1008.52
2023-05-10T22:50:05.364Z,1008.50
2023-05-10T22:51:05.371Z,1008.54
2023-05-10T22:52:05.373Z,1008.51
2023-05-10T22:53:05.388Z,1008.52
2023-05-10T22:54:05.389Z,1008.55
2023-05-10T22:55:05.434Z,1008.54
2023-05-10T22:56:05.415Z,1008.55
2023-05-10T22:57:05.412Z,1008.55
2023-05-10T22:58:05.420Z,1008.59
2023-05-10T22:59:05.437Z,1008.60
2023-05-10T23:00:05.436Z,1008.60
2023-05-10T23:01:05.460Z,1008.60
2023-05-10T23:02:05.517Z,1008.62
2023-05-10T23:03:05.494Z,1008.62
2023-05-10T23:04:05.475Z,1008.63
2023-05-10T23:05:05.586Z,1008.64
2023-05-10T23:06:05.496Z,1008.64
2023-05-10T23:07:05.507Z,1008.64
2023-05-10T23:08:05.513Z,1008.66
2023-05-10T23:09:05.522Z,1008.73
2023-05-10T23:10:05.520Z,1008.68
2023-05-10T23:11:05.548Z,1008.71
2023-05-10T23:12:05.548Z,1008.69
2023-05-10T23:13:05.544Z,1008.69
2023-05-10T23:14:05.555Z,1008.71
2023-05-10T23:15:05.569Z,1008.73
2023-05-10T23:16:05.662Z,1008.70
2023-05-10T23:17:05.593Z,1008.70
2023-05-10T23:18:05.640Z,1008.71
2023-05-10T23:19:05.648Z,1008.70
2023-05-10T23:20:05.610Z,1008.69
2023-05-10T23:21:05.617Z,1008.70
2023-05-10T23:22:05.638Z,1008.73
2023-05-10T23:23:05.635Z,1008.68
2023-05-10T23:24:05.674Z,1008.74
2023-05-10T23:25:05.670Z,1008.73
2023-05-10T23:26:05.665Z,1008.71
2023-05-10T23:27:05.683Z,1008.73
2023-05-10T23:28:05.675Z,1008.75
2023-05-10T23:29:05.705Z,1008.72
2023-05-10T23:30:05.690Z,1008.72
2023-05-10T23:31:05.717Z,1008.70
2023-05-10T23:32:05.759Z,1008.75
2023-05-10T23:33:05.812Z,1008.79
2023-05-10T23:34:05.718Z,1008.77
2023-05-10T23:35:05.731Z,1008.73
2023-05-10T23:36:05.747Z,1008.77
2023-05-10T23:37:05.745Z,1008.73
2023-05-10T23:38:05.759Z,1008.75
2023-05-10T23:39:05.777Z,1008.76
2023-05-10T23:40:05.773Z,1008.76
2023-05-10T23:41:05.780Z,1008.74
2023-05-10T23:42:05.797Z,1008.75
2023-05-10T23:43:05.823Z,1008.77
2023-05-10T23:44:05.811Z,1008.76
2023-05-10T23:45:05.819Z,1008.75
2023-05-10T23:46:05.945Z,1008.76
2023-05-10T23:47:05.836Z,1008.77
2023-05-10T23:48:05.876Z,1008.79
2023-05-10T23:49:05.854Z,1008.77
2023-05-10T23:50:05.866Z,1008.76
2023-05-10T23:51:05.875Z,1008.78
2023-05-10T23:52:05.890Z,1008.76
2023-05-10T23:53:05.879Z,1008.77
2023-05-10T23:54:05.897Z,1008.77
2023-05-10T23:55:05.904Z,1008.80
2023-05-10T23:56:05.912Z,1008.78
2023-05-10T23:57:05.916Z,1008.74
2023-05-10T23:58:05.933Z,1008.74
2023-05-10T23:59:06.062Z,1008.78
